Time;durP1;ratioP1;P1;durP2;ratioP2;P2;SDS_P1;SDS_P2;PMS_P1;PMS_P2;Temp;Humidity;BMP_temperature;BMP_pressure;BME280_temperature;BME280_humidity;BME280_pressure;Samples;Min_cycle;Max_cycle;Signal;HPM_P1;HPM_P2
2021/06/23 00:03:08;;;;;;;4.03;2.22;;;;;;;13.94;89.14;101333.06;5706800;22;20060;-83
2021/06/23 00:05:34;;;;;;;3.35;2.20;;;;;;;14.29;89.16;101392.34;5021262;28;20058;-83
2021/06/23 00:08:00;;;;;;;4.32;2.50;;;;;;;14.07;89.25;101353.84;5055745;22;20045;-83
2021/06/23 00:10:26;;;;;;;6.25;2.42;;;;;;;14.51;88.88;101426.31;5184510;22;20046;-85
2021/06/23 00:12:53;;;;;;;5.53;2.83;;;;;;;14.21;89.03;101377.16;5041528;28;20034;-84
2021/06/23 00:17:55;;;;;;;5.60;4.03;;;;;;;14.47;89.33;101426.91;5235587;23;20121;-84
2021/06/23 00:20:22;;;;;;;7.25;3.72;;;;;;;14.06;89.48;101363.00;5023600;28;20020;-83
2021/06/23 00:22:47;;;;;;;4.63;4.15;;;;;;;14.69;89.63;101460.03;5024902;28;20010;-83
2021/06/23 00:25:14;;;;;;;5.63;4.13;;;;;;;13.80;89.63;101325.94;5023981;28;20041;-83
2021/06/23 00:27:40;;;;;;;8.02;3.75;;;;;;;13.74;89.64;101321.38;5039535;28;20036;-83
2021/06/23 00:30:06;;;;;;;5.55;3.70;;;;;;;13.77;89.49;101331.78;5058375;28;20025;-84
2021/06/23 00:32:34;;;;;;;5.45;3.90;;;;;;;14.03;89.28;101383.19;5042562;28;20013;-83
2021/06/23 00:35:00;;;;;;;9.13;4.03;;;;;;;13.63;89.49;101309.31;5042216;28;20026;-84
2021/06/23 00:37:26;;;;;;;6.90;3.50;;;;;;;14.57;89.57;101471.53;5039922;28;20021;-84
2021/06/23 00:39:51;;;;;;;10.20;3.53;;;;;;;13.75;89.59;101339.28;5040482;28;20069;-84
2021/06/23 00:42:17;;;;;;;6.88;3.55;;;;;;;14.54;90.01;101466.53;5034021;28;20077;-84
2021/06/23 00:44:44;;;;;;;5.15;3.40;;;;;;;13.92;89.58;101377.59;5022958;28;20064;-83
2021/06/23 00:47:10;;;;;;;7.47;3.63;;;;;;;13.93;89.85;101385.47;5022188;28;20097;-84
2021/06/23 00:49:37;;;;;;;5.38;3.70;;;;;;;13.56;89.77;101328.22;5040042;28;20049;-83
2021/06/23 00:52:06;;;;;;;4.28;3.60;;;;;;;14.52;90.15;101487.56;5040078;28;20022;-83
2021/06/23 00:54:33;;;;;;;6.75;3.60;;;;;;;13.67;89.71;101344.88;5039976;28;20018;-84
2021/06/23 00:56:59;;;;;;;6.25;4.20;;;;;;;14.17;90.36;101434.63;5538547;22;20030;-83
2021/06/23 00:59:26;;;;;;;7.53;3.80;;;;;;;13.84;89.88;101376.75;5040080;28;20038;-84
2021/06/23 01:01:52;;;;;;;10.82;3.72;;;;;;;13.63;90.15;101350.69;5038196;28;20085;-85
2021/06/23 01:04:19;;;;;;;6.15;3.75;;;;;;;13.80;90.33;101380.06;5051929;28;20014;-84
2021/06/23 01:06:46;;;;;;;8.63;3.60;;;;;;;13.78;90.14;101376.75;5059341;28;20006;-84
2021/06/23 01:09:13;;;;;;;7.65;4.03;;;;;;;14.23;90.20;101466.28;5060531;28;20032;-84
2021/06/23 01:11:58;;;;;;;4.85;3.50;;;;;;;14.45;90.21;101489.41;5055947;28;20053;-83
2021/06/23 01:14:26;;;;;;;6.55;3.85;;;;;;;13.36;90.25;101313.84;5039620;28;20026;-83
2021/06/23 01:16:53;;;;;;;4.20;3.25;;;;;;;13.72;90.31;101369.44;5055393;28;20055;-83
2021/06/23 01:19:24;;;;;;;5.57;3.05;;;;;;;13.78;90.15;101382.16;5058976;28;20364;-84
2021/06/23 01:21:50;;;;;;;4.72;3.47;;;;;;;13.73;90.24;101371.09;5059800;28;20039;-84
2021/06/23 01:24:18;;;;;;;6.13;3.58;;;;;;;14.51;90.54;101493.19;5059423;28;20025;-83
2021/06/23 01:26:47;;;;;;;4.10;3.20;;;;;;;13.75;90.33;101374.44;5058688;28;20068;-84
2021/06/23 01:29:13;;;;;;;8.43;3.83;;;;;;;13.60;90.25;101355.69;5058344;28;20022;-83
2021/06/23 01:31:39;;;;;;;6.88;3.83;;;;;;;13.53;90.40;101342.16;5023142;28;20022;-84
2021/06/23 01:34:05;;;;;;;5.03;3.30;;;;;;;13.97;90.42;101402.97;5040837;28;20050;-84
2021/06/23 01:36:31;;;;;;;7.00;3.53;;;;;;;14.48;90.52;101496.28;5058985;28;20029;-82
2021/06/23 01:38:56;;;;;;;7.72;3.90;;;;;;;14.46;90.53;101490.22;5041979;28;20056;-84
2021/06/23 01:41:22;;;;;;;7.93;4.13;;;;;;;13.85;90.58;101393.81;5057717;28;20033;-83
2021/06/23 01:43:48;;;;;;;7.95;4.40;;;;;;;13.79;90.88;101391.91;5041546;28;20005;-83
2021/06/23 01:46:14;;;;;;;5.93;3.75;;;;;;;13.84;90.66;101392.97;5041433;28;20010;-83
2021/06/23 01:48:40;;;;;;;6.72;4.50;;;;;;;14.01;91.13;101433.16;5056380;28;20098;-84
2021/06/23 01:51:06;;;;;;;8.48;3.80;;;;;;;13.55;91.20;101353.59;5041493;28;20018;-84
2021/06/23 01:53:34;;;;;;;8.02;3.80;;;;;;;13.62;90.70;101362.56;5050061;28;20021;-83
2021/06/23 01:56:00;;;;;;;7.95;5.03;;;;;;;14.34;91.20;101477.31;5056332;28;20037;-81
2021/06/23 01:58:26;;;;;;;8.82;4.00;;;;;;;13.86;90.80;101409.00;5041841;28;20068;-83
2021/06/23 02:01:13;;;;;;;6.80;3.85;;;;;;;14.32;91.46;101473.16;5058365;28;20030;-83
2021/06/23 02:03:57;;;;;;;4.72;3.70;;;;;;;13.55;91.14;101356.31;5028942;28;20029;-83
2021/06/23 02:07:03;;;;;;;7.93;4.10;;;;;;;14.28;91.57;101485.44;5058428;28;20032;-83
2021/06/23 02:09:55;;;;;;;7.68;4.25;;;;;;;13.34;91.72;101327.59;5058560;28;20018;-83
2021/06/23 02:12:24;;;;;;;9.60;4.25;;;;;;;14.23;91.78;101477.09;5057803;28;20064;-84
2021/06/23 02:14:56;;;;;;;9.27;3.85;;;;;;;13.37;91.79;101337.13;5058601;28;20013;-83
2021/06/23 02:17:27;;;;;;;7.10;3.28;;;;;;;13.27;91.55;101332.13;5057766;28;20009;-83
2021/06/23 02:19:54;;;;;;;8.20;3.60;;;;;;;13.63;92.32;101395.84;5058194;28;20040;-82
2021/06/23 02:22:25;;;;;;;6.03;3.60;;;;;;;13.24;92.17;101337.06;5059066;28;20066;-84
2021/06/23 02:24:55;;;;;;;9.63;3.63;;;;;;;13.84;92.31;101427.28;5056527;28;20031;-83
2021/06/23 02:27:22;;;;;;;7.32;3.47;;;;;;;13.57;92.02;101381.25;5041739;28;20033;-83
2021/06/23 02:29:49;;;;;;;7.43;3.83;;;;;;;13.17;91.93;101310.84;5041633;28;20014;-83
2021/06/23 02:32:17;;;;;;;5.45;3.45;;;;;;;13.95;91.99;101447.50;5041082;28;20014;-83
2021/06/23 02:34:47;;;;;;;6.57;3.30;;;;;;;14.01;92.28;101457.53;5056581;28;20029;-83
2021/06/23 02:37:14;;;;;;;7.57;3.70;;;;;;;14.12;92.43;101477.72;5038430;28;20032;-84
2021/06/23 02:39:40;;;;;;;4.90;3.50;;;;;;;14.11;92.23;101468.78;5057627;28;20093;-83
2021/06/23 02:42:07;;;;;;;4.72;3.42;;;;;;;14.08;92.40;101467.31;5039150;28;20009;-83
2021/06/23 02:44:33;;;;;;;8.38;3.15;;;;;;;14.09;92.62;101460.84;5040771;28;20025;-83
2021/06/23 02:46:59;;;;;;;5.07;2.97;;;;;;;14.02;92.34;101454.59;5040880;28;20006;-84
2021/06/23 02:49:25;;;;;;;3.80;2.40;;;;;;;14.04;92.42;101452.53;5058012;28;20033;-84
2021/06/23 02:51:52;;;;;;;5.10;2.60;;;;;;;14.12;92.10;101466.91;5058235;28;20041;-83
2021/06/23 02:54:19;;;;;;;5.80;2.60;;;;;;;14.12;91.97;101464.19;5042068;28;20033;-84
2021/06/23 02:56:45;;;;;;;3.38;2.40;;;;;;;14.14;92.08;101465.66;5057340;28;20021;-80
2021/06/23 02:59:12;;;;;;;8.07;2.85;;;;;;;14.17;91.94;101467.09;5060425;28;20030;-84
2021/06/23 03:01:37;;;;;;;5.88;2.53;;;;;;;14.21;91.87;101471.91;5057859;28;20036;-83
2021/06/23 03:04:03;;;;;;;4.90;2.22;;;;;;;14.21;92.34;101473.78;5057928;28;20018;-84
2021/06/23 03:06:28;;;;;;;4.80;2.30;;;;;;;14.22;92.02;101475.44;5040662;28;20033;-84
2021/06/23 03:08:54;;;;;;;3.83;2.40;;;;;;;14.22;91.76;101480.84;5057259;28;20093;-83
2021/06/23 03:11:20;;;;;;;5.35;2.60;;;;;;;14.22;91.66;101480.84;5057686;28;20001;-83
2021/06/23 03:13:45;;;;;;;5.22;2.60;;;;;;;14.22;91.57;101484.38;5058147;28;20029;-82
2021/06/23 03:16:11;;;;;;;6.85;2.50;;;;;;;14.21;91.65;101481.91;5059047;28;20026;-83
2021/06/23 03:18:36;;;;;;;5.97;2.20;;;;;;;14.16;91.36;101477.09;5041359;28;20097;-83
2021/06/23 03:21:04;;;;;;;4.90;2.25;;;;;;;14.25;91.44;101502.09;5041297;28;20017;-83
2021/06/23 03:23:30;;;;;;;3.47;2.22;;;;;;;14.21;91.28;101503.56;5040784;28;20017;-83
2021/06/23 03:25:56;;;;;;;3.05;2.10;;;;;;;14.24;91.46;101503.97;5058327;28;20023;-82
2021/06/23 03:28:22;;;;;;;14.98;2.70;;;;;;;14.24;91.24;101497.72;5041531;28;20025;-83
2021/06/23 03:30:48;;;;;;;4.38;2.53;;;;;;;14.24;91.17;101505.84;5060916;28;20036;-83
2021/06/23 03:33:13;;;;;;;5.28;2.63;;;;;;;14.22;91.22;101494.38;5061507;28;20026;-83
2021/06/23 03:35:39;;;;;;;3.90;2.70;;;;;;;14.27;91.01;101510.81;5059265;28;20079;-83
2021/06/23 03:38:04;;;;;;;4.03;2.70;;;;;;;14.28;90.64;101504.41;5058702;28;20013;-83
2021/06/23 03:40:30;;;;;;;4.78;2.60;;;;;;;14.29;91.17;101506.06;5061541;28;20045;-83
2021/06/23 03:42:56;;;;;;;4.97;2.28;;;;;;;14.29;90.76;101514.16;5060907;28;20016;-84
2021/06/23 03:45:22;;;;;;;3.75;2.50;;;;;;;14.23;90.95;101505.00;5044292;28;20017;-84
2021/06/23 03:47:47;;;;;;;4.50;2.35;;;;;;;14.28;90.65;101504.41;5061016;28;20064;-84
2021/06/23 03:50:14;;;;;;;3.67;2.45;;;;;;;14.30;90.34;101507.72;5041015;28;20020;-83
2021/06/23 03:52:40;;;;;;;7.57;2.30;;;;;;;14.33;90.46;101510.00;5042607;28;20014;-83
2021/06/23 03:55:08;;;;;;;3.97;2.35;;;;;;;14.37;90.26;101510.44;5060942;28;20040;-83
2021/06/23 03:57:33;;;;;;;4.47;2.35;;;;;;;14.28;90.50;101499.81;5039615;28;20065;-83
2021/06/23 03:59:59;;;;;;;3.25;2.20;;;;;;;14.33;90.30;101518.94;5057027;28;20018;-84
2021/06/23 04:02:24;;;;;;;3.25;2.17;;;;;;;14.36;90.52;101517.72;5024181;28;20017;-83
2021/06/23 04:04:50;;;;;;;2.38;2.00;;;;;;;14.37;90.45;101514.00;5045050;28;20033;-84
2021/06/23 04:07:15;;;;;;;3.70;2.25;;;;;;;14.39;90.04;101520.00;5039047;28;20049;-83
2021/06/23 04:09:42;;;;;;;2.85;2.08;;;;;;;14.37;90.32;101514.00;5040542;28;20010;-83
2021/06/23 04:12:09;;;;;;;3.60;2.15;;;;;;;14.47;90.17;101517.13;5040296;28;20025;-83
2021/06/23 04:14:35;;;;;;;2.95;1.92;;;;;;;14.52;90.25;101524.66;5024464;28;20037;-83
2021/06/23 04:17:01;;;;;;;5.80;2.10;;;;;;;14.55;89.86;101525.06;5042552;28;20010;-83
2021/06/23 04:19:26;;;;;;;7.32;2.05;;;;;;;14.56;89.62;101532.13;5022818;28;20026;-83
2021/06/23 04:21:52;;;;;;;2.72;2.17;;;;;;;14.54;89.74;101538.81;5056252;28;20034;-83
2021/06/23 04:24:17;;;;;;;4.32;2.10;;;;;;;14.52;90.06;101544.44;5039655;28;20038;-84
2021/06/23 04:26:44;;;;;;;4.55;2.33;;;;;;;14.48;90.27;101542.31;5023283;28;20013;-83
2021/06/23 04:29:10;;;;;;;3.53;2.10;;;;;;;14.45;90.22;101543.56;5039814;28;20029;-84
2021/06/23 04:31:35;;;;;;;2.60;2.00;;;;;;;14.44;90.42;101531.06;5039933;28;20006;-84
2021/06/23 04:34:01;;;;;;;4.85;2.10;;;;;;;14.49;90.46;101536.69;5040565;28;20072;-81
2021/06/23 04:36:26;;;;;;;4.38;2.15;;;;;;;14.50;90.49;101535.69;5055358;28;20076;-82
2021/06/23 04:38:52;;;;;;;5.15;2.50;;;;;;;14.55;90.92;101546.72;5051369;28;20053;-81
2021/06/23 04:41:17;;;;;;;4.80;2.22;;;;;;;14.43;90.58;101523.97;5050960;28;20097;-82
2021/06/23 04:43:43;;;;;;;3.28;2.20;;;;;;;14.56;90.94;101548.38;5032615;28;20026;-81
2021/06/23 04:46:08;;;;;;;3.90;2.20;;;;;;;14.44;91.01;101531.06;5034120;28;20698;-80
2021/06/23 04:48:34;;;;;;;2.92;1.95;;;;;;;14.57;90.85;101543.81;5003472;28;20081;-79
2021/06/23 04:51:00;;;;;;;5.75;2.00;;;;;;;14.62;90.88;101556.72;5025776;28;20026;-81
2021/06/23 04:53:25;;;;;;;5.32;2.20;;;;;;;14.61;90.60;101549.66;5032265;28;20037;-82
2021/06/23 04:55:53;;;;;;;4.50;2.15;;;;;;;14.66;90.63;101558.81;5036286;28;20037;-81
2021/06/23 04:58:19;;;;;;;2.78;1.70;;;;;;;14.71;90.85;101552.78;5029666;28;20046;-80
2021/06/23 05:00:44;;;;;;;2.50;1.83;;;;;;;14.70;90.60;101559.22;5028675;28;20022;-81
2021/06/23 05:03:10;;;;;;;2.25;1.60;;;;;;;14.74;90.30;101555.91;5043968;28;20025;-79
2021/06/23 05:05:35;;;;;;;4.05;1.70;;;;;;;14.87;90.46;101563.22;5014025;28;20040;-80
2021/06/23 05:08:01;;;;;;;4.63;2.08;;;;;;;14.93;89.89;101567.78;5042874;28;20033;-80
2021/06/23 05:10:26;;;;;;;2.65;1.50;;;;;;;15.02;89.74;101558.38;5026793;28;20040;-81
2021/06/23 05:12:51;;;;;;;3.20;1.63;;;;;;;15.13;89.27;101567.78;5016480;28;20089;-81
2021/06/23 05:15:17;;;;;;;3.05;1.50;;;;;;;15.25;89.11;101570.66;5048262;28;20042;-81
2021/06/23 05:17:42;;;;;;;5.47;1.88;;;;;;;15.31;88.92;101561.69;5029737;28;20030;-80
2021/06/23 05:20:08;;;;;;;2.58;1.75;;;;;;;15.39;88.74;101561.44;5025200;28;20086;-80
2021/06/23 05:22:34;;;;;;;2.13;1.58;;;;;;;15.40;88.11;101560.41;5023756;28;20030;-79
2021/06/23 05:24:59;;;;;;;2.15;1.70;;;;;;;15.36;88.07;101553.72;5013733;28;20034;-80
2021/06/23 05:27:25;;;;;;;2.53;1.40;;;;;;;15.42;88.09;101574.56;5029687;28;20029;-81
2021/06/23 05:29:50;;;;;;;2.30;1.52;;;;;;;15.56;88.21;101580.78;5012387;28;20032;-81
2021/06/23 05:32:16;;;;;;;2.17;1.60;;;;;;;15.56;87.95;101577.25;5034252;28;20046;-81
2021/06/23 05:34:41;;;;;;;2.22;1.50;;;;;;;15.60;87.37;101587.47;5048121;28;20054;-81
2021/06/23 05:37:07;;;;;;;2.15;1.33;;;;;;;15.49;87.57;101586.25;5019833;28;20032;-81
2021/06/23 05:39:32;;;;;;;1.65;1.20;;;;;;;15.47;87.18;101582.94;5038056;28;20035;-79
2021/06/23 05:41:59;;;;;;;2.85;1.42;;;;;;;15.57;86.26;101582.47;5020664;28;20025;-79
2021/06/23 05:44:24;;;;;;;1.90;1.20;;;;;;;15.62;86.21;101589.97;5026910;28;20026;-80
2021/06/23 05:46:50;;;;;;;4.72;1.50;;;;;;;15.54;86.80;101587.50;5042391;28;20052;-80
2021/06/23 05:49:15;;;;;;;4.25;1.50;;;;;;;15.60;86.22;101589.38;5025868;28;20036;-81
2021/06/23 05:51:41;;;;;;;2.67;1.60;;;;;;;15.70;85.90;101581.66;5036811;28;20050;-79
2021/06/23 05:54:06;;;;;;;2.83;1.50;;;;;;;15.85;85.64;101589.50;5018828;28;20101;-79
2021/06/23 05:56:31;;;;;;;2.97;1.70;;;;;;;15.87;84.81;101590.97;5017377;28;20076;-78
2021/06/23 05:58:57;;;;;;;4.13;1.70;;;;;;;15.91;85.00;101600.34;4999956;28;20054;-79
2021/06/23 06:01:22;;;;;;;5.65;2.08;;;;;;;15.79;84.81;101593.91;5017914;28;20042;-79
2021/06/23 06:03:48;;;;;;;3.90;1.60;;;;;;;15.84;84.97;101609.56;5021019;28;20032;-80
2021/06/23 06:06:14;;;;;;;3.92;1.92;;;;;;;15.89;84.41;101616.03;5017945;28;20053;-79
2021/06/23 06:08:39;;;;;;;2.10;1.50;;;;;;;15.89;84.27;101618.75;5020431;28;20036;-80
2021/06/23 06:11:05;;;;;;;2.75;1.50;;;;;;;15.75;84.12;101622.53;5023317;28;20040;-83
2021/06/23 06:13:30;;;;;;;3.35;1.40;;;;;;;15.74;83.13;101618.16;5002925;28;20030;-82
2021/06/23 06:15:55;;;;;;;2.25;1.30;;;;;;;15.84;82.92;101625.84;5020777;28;20105;-79
2021/06/23 06:18:24;;;;;;;3.10;1.20;;;;;;;15.76;83.21;101624.22;5018815;28;20043;-79
2021/06/23 06:20:49;;;;;;;2.83;1.42;;;;;;;15.75;82.97;101627.94;5023700;28;20012;-81
2021/06/23 06:23:15;;;;;;;2.25;1.48;;;;;;;15.82;82.74;101639.63;5024169;28;20033;-83
2021/06/23 06:25:40;;;;;;;3.95;1.50;;;;;;;15.71;82.89;101634.84;5026556;28;20064;-81
2021/06/23 06:28:05;;;;;;;3.20;1.38;;;;;;;15.75;83.13;101633.38;5045012;28;20034;-82
2021/06/23 06:30:31;;;;;;;2.22;1.30;;;;;;;15.66;83.04;101626.47;5031430;28;20018;-83
2021/06/23 06:32:56;;;;;;;2.92;1.25;;;;;;;15.69;83.17;101631.50;5042754;28;20018;-82
2021/06/23 06:35:22;;;;;;;2.00;1.10;;;;;;;15.60;82.76;101644.47;5024654;28;20784;-82
2021/06/23 06:37:47;;;;;;;2.45;1.50;;;;;;;15.87;82.35;101639.81;5022723;28;20025;-82
2021/06/23 06:40:13;;;;;;;5.28;1.52;;;;;;;16.02;81.28;101646.84;5028548;28;20030;-82
2021/06/23 06:42:39;;;;;;;3.20;1.10;;;;;;;16.09;81.45;101640.38;5031033;28;20028;-82
2021/06/23 06:45:06;;;;;;;1.95;1.13;;;;;;;16.21;80.21;101649.50;5032685;28;20010;-84
2021/06/23 06:47:33;;;;;;;1.48;0.90;;;;;;;16.38;79.52;101641.66;5036062;28;20018;-83
2021/06/23 06:49:59;;;;;;;1.88;1.00;;;;;;;15.82;79.28;101531.06;5375440;22;20042;-82
2021/06/23 06:52:25;;;;;;;1.20;1.10;;;;;;;16.48;77.89;101595.03;5035128;28;20037;-82
2021/06/23 06:54:51;;;;;;;3.78;1.00;;;;;;;16.43;76.74;101564.97;5033896;28;20009;-82
2021/06/23 06:57:20;;;;;;;2.15;0.77;;;;;;;16.59;75.80;101501.13;5052178;28;20096;-82
2021/06/23 07:02:21;;;;;;;1.75;0.60;;;;;;;17.52;72.97;101570.94;5753364;22;20045;-82
2021/06/23 07:15:09;;;;;;;1.20;1.00;;;;;;;17.23;71.95;101510.78;5640813;23;20041;-84
2021/06/23 07:20:11;;;;;;;0.98;0.73;;;;;;;17.02;72.00;101514.75;5738361;22;20044;-83
2021/06/23 07:22:37;;;;;;;1.95;0.90;;;;;;;16.80;72.04;101497.19;5063135;28;20017;-82
2021/06/23 07:25:03;;;;;;;3.35;1.02;;;;;;;17.41;72.03;101599.72;5075610;28;20516;-83
2021/06/23 07:27:29;;;;;;;1.02;0.90;;;;;;;16.93;72.61;101554.16;5071917;28;20028;-83
2021/06/23 07:29:55;;;;;;;3.22;1.42;;;;;;;17.67;72.25;101676.69;5074990;28;20025;-82
2021/06/23 07:32:26;;;;;;;1.38;0.80;;;;;;;16.72;72.19;101509.16;5056593;28;20036;-84
2021/06/23 07:37:20;;;;;;;1.63;0.85;;;;;;;17.10;71.06;101554.41;5074472;28;20072;-82
2021/06/23 07:39:46;;;;;;;1.00;0.90;;;;;;;16.63;72.61;101545.81;5075918;28;20025;-82
2021/06/23 07:42:12;;;;;;;2.70;1.08;;;;;;;16.76;72.31;101525.88;5076043;28;20128;-84
2021/06/23 07:44:45;;;;;;;1.63;1.08;;;;;;;17.00;71.75;101548.66;5058449;28;20109;-83
2021/06/23 07:47:17;;;;;;;2.13;0.90;;;;;;;17.42;71.49;101579.63;5057940;28;20032;-82
2021/06/23 07:49:43;;;;;;;1.63;1.00;;;;;;;17.42;70.69;101540.69;5056617;28;20017;-83
2021/06/23 07:52:19;;;;;;;1.58;0.95;;;;;;;17.57;70.16;101539.25;5073584;28;20044;-83
2021/06/23 07:54:55;;;;;;;2.75;0.93;;;;;;;17.76;69.77;101548.28;5061664;28;20005;-81
2021/06/23 08:10:47;;;;;;;1.00;0.70;;;;;;;16.56;70.57;101491.53;5073025;28;20030;-83
2021/06/23 08:13:16;;;;;;;1.92;0.90;;;;;;;17.09;71.09;101607.97;5061663;28;20041;-83
2021/06/23 08:15:44;;;;;;;1.05;0.70;;;;;;;17.58;71.13;101677.00;5060428;28;20040;-82
2021/06/23 08:18:14;;;;;;;0.95;0.70;;;;;;;17.01;70.72;101575.63;5080135;28;20013;-83
2021/06/23 08:20:41;;;;;;;1.13;0.80;;;;;;;17.74;70.16;101681.00;5081280;28;20029;-82
2021/06/23 08:23:08;;;;;;;1.20;0.73;;;;;;;16.61;70.18;101501.72;5066959;28;20009;-81
2021/06/23 08:25:33;;;;;;;0.60;0.60;;;;;;;16.76;69.75;101532.16;5079119;28;20009;-83
2021/06/23 08:27:59;;;;;;;1.45;0.88;;;;;;;16.40;69.62;101514.63;5065109;28;20029;-83
2021/06/23 08:30:26;;;;;;;0.90;0.75;;;;;;;16.53;70.07;101532.72;5059953;28;20008;-83
2021/06/23 08:32:52;;;;;;;1.30;0.60;;;;;;;16.21;70.35;101502.03;5079511;28;20048;-83
2021/06/23 08:35:18;;;;;;;0.65;0.60;;;;;;;16.48;70.50;101565.13;5076600;28;20043;-83
2021/06/23 08:37:44;;;;;;;1.42;0.70;;;;;;;16.99;70.70;101656.59;5076793;28;20028;-84
2021/06/23 08:40:13;;;;;;;1.02;0.60;;;;;;;16.99;71.51;101677.50;5063912;28;20005;-84
2021/06/23 08:42:39;;;;;;;0.60;0.60;;;;;;;17.14;71.34;101676.13;5056774;28;20085;-83
2021/06/23 08:45:07;;;;;;;0.70;0.50;;;;;;;17.13;71.46;101676.34;5079005;28;20017;-83
2021/06/23 08:47:41;;;;;;;0.68;0.50;;;;;;;17.16;70.79;101665.03;5069357;28;20104;-81
2021/06/23 08:50:07;;;;;;;;;;;;;;;17.26;70.95;101681.69;5086072;28;20035;-83
2021/06/23 08:52:33;;;;;;;0.93;0.50;;;;;;;17.15;70.91;101674.22;5060718;28;20385;-83
2021/06/23 08:54:59;;;;;;;0.70;0.70;;;;;;;17.25;71.08;101685.47;5060185;28;20106;-83
2021/06/23 08:57:24;;;;;;;0.80;0.60;;;;;;;17.23;71.15;101679.41;5049954;28;20039;-83
2021/06/23 08:59:50;;;;;;;0.70;0.70;;;;;;;17.20;71.01;101685.28;5079922;28;20055;-83
2021/06/23 09:02:16;;;;;;;2.30;0.57;;;;;;;17.32;71.11;101683.50;5075500;28;20008;-81
2021/06/23 09:04:59;;;;;;;0.80;0.60;;;;;;;17.50;70.69;101700.94;5056619;28;20041;-83
2021/06/23 09:07:48;;;;;;;0.68;0.60;;;;;;;17.49;70.26;101699.28;5059741;28;20025;-83
2021/06/23 09:10:23;;;;;;;2.05;0.60;;;;;;;17.51;70.56;101697.16;5079462;28;20035;-83
2021/06/23 09:13:04;;;;;;;1.27;0.63;;;;;;;17.40;71.07;101678.84;5080548;28;20017;-82
2021/06/23 09:15:44;;;;;;;0.50;0.35;;;;;;;17.44;71.32;101693.66;5077366;28;20143;-81
2021/06/23 09:18:16;;;;;;;0.65;0.40;;;;;;;17.48;70.62;101689.44;5077533;28;20027;-83
2021/06/23 09:20:44;;;;;;;0.70;0.40;;;;;;;17.26;71.04;101675.41;5078726;28;20061;-82
2021/06/23 09:23:10;;;;;;;0.55;0.40;;;;;;;17.27;72.11;101688.78;5044094;28;20618;-82
2021/06/23 09:25:37;;;;;;;0.70;0.40;;;;;;;17.18;71.60;101687.38;5059788;28;20462;-83
2021/06/23 09:28:17;;;;;;;1.00;0.30;;;;;;;17.22;71.60;101683.19;5031277;28;20032;-82
2021/06/23 09:30:47;;;;;;;0.40;0.30;;;;;;;17.14;72.27;101689.72;5058698;28;20025;-81
2021/06/23 09:33:24;;;;;;;0.50;0.40;;;;;;;16.99;71.71;101700.09;5073081;28;20025;-81
2021/06/23 09:35:56;;;;;;;0.47;0.40;;;;;;;17.03;72.95;101695.03;5073219;28;20021;-80
2021/06/23 09:38:59;;;;;;;0.75;0.40;;;;;;;16.95;72.48;101695.28;5050429;28;20101;-80
2021/06/23 09:41:30;;;;;;;1.38;0.40;;;;;;;16.85;72.66;101698.50;5026367;28;20103;-78
2021/06/23 09:44:08;;;;;;;1.30;0.40;;;;;;;16.95;72.79;101704.28;5066491;28;20606;-78
2021/06/23 09:46:37;;;;;;;0.77;0.40;;;;;;;16.98;72.28;101686.69;5069993;28;20044;-82
2021/06/23 09:49:23;;;;;;;0.45;0.40;;;;;;;17.21;71.43;101686.13;5064700;28;20025;-82
2021/06/23 09:52:07;;;;;;;0.98;0.35;;;;;;;17.13;72.02;101690.78;5046956;28;20381;-81
2021/06/23 09:54:48;;;;;;;0.30;0.30;;;;;;;17.11;71.66;101689.31;5053081;28;20029;-81
2021/06/23 09:57:15;;;;;;;0.75;0.40;;;;;;;16.97;71.71;101683.16;5205709;23;20057;-82
2021/06/23 09:59:43;;;;;;;0.30;0.30;;;;;;;16.24;71.23;101526.03;5095681;28;20055;-81
2021/06/23 10:02:27;;;;;;;0.30;0.30;;;;;;;16.37;71.53;101574.84;5084048;28;20016;-82
2021/06/23 10:04:58;;;;;;;0.40;0.40;;;;;;;16.32;71.98;101569.22;5093645;28;20016;-83
2021/06/23 10:07:38;;;;;;;0.40;0.30;;;;;;;16.27;72.11;101576.38;5095415;28;20052;-83
2021/06/23 10:10:05;;;;;;;0.55;0.35;;;;;;;16.58;71.71;101632.56;5077734;28;20021;-81
2021/06/23 10:12:31;;;;;;;2.45;0.47;;;;;;;17.03;71.91;101692.31;5092806;28;20056;-81
2021/06/23 10:14:58;;;;;;;0.50;0.30;;;;;;;15.93;71.46;101527.69;5095634;28;20016;-83
2021/06/23 10:17:24;;;;;;;0.40;0.30;;;;;;;16.74;71.62;101642.94;5089567;28;20032;-83
2021/06/23 10:19:50;;;;;;;1.13;0.30;;;;;;;16.08;71.41;101530.09;5096095;28;20005;-84
2021/06/23 10:22:17;;;;;;;0.30;0.30;;;;;;;16.24;71.15;101569.47;5096277;28;20046;-83
2021/06/23 10:24:44;;;;;;;0.40;0.40;;;;;;;16.33;71.69;101591.78;5081059;28;20020;-83
2021/06/23 10:27:11;;;;;;;0.32;0.30;;;;;;;15.98;71.67;101518.88;5098562;28;20013;-84
2021/06/23 10:29:38;;;;;;;0.40;0.40;;;;;;;15.93;71.49;101514.13;5098500;28;20027;-84
2021/06/23 10:32:05;;;;;;;0.50;0.45;;;;;;;16.21;71.56;101553.63;5096580;28;20084;-85
2021/06/23 10:34:32;;;;;;;0.38;0.38;;;;;;;16.04;70.85;101539.72;5096490;28;20013;-84
2021/06/23 10:36:59;;;;;;;0.50;0.43;;;;;;;16.83;70.86;101657.13;5075414;28;20032;-84
2021/06/23 10:39:36;;;;;;;1.15;0.50;;;;;;;16.34;71.42;101566.28;5589655;22;20057;-82
2021/06/23 10:42:07;;;;;;;0.60;0.50;;;;;;;16.35;71.51;101549.75;5038937;28;20040;-83
2021/06/23 10:47:26;;;;;;;1.58;0.55;;;;;;;16.22;71.10;101530.84;5129042;22;20049;-83
2021/06/23 10:49:53;;;;;;;0.50;0.38;;;;;;;17.25;71.25;101703.66;5033183;28;20034;-83
2021/06/23 10:52:22;;;;;;;1.42;0.40;;;;;;;17.29;71.70;101704.91;5020441;28;20013;-83
2021/06/23 10:54:57;;;;;;;0.77;0.50;;;;;;;16.70;71.48;101616.41;5045062;28;20006;-83
2021/06/23 10:57:36;;;;;;;0.70;0.50;;;;;;;16.10;71.70;101525.28;5040590;28;20045;-83
2021/06/23 11:00:11;;;;;;;0.88;0.50;;;;;;;17.49;70.65;101721.06;5038962;28;21005;-83
2021/06/23 11:02:39;;;;;;;0.70;0.50;;;;;;;16.26;71.00;101537.53;5023158;28;20002;-84
2021/06/23 11:05:13;;;;;;;0.85;0.50;;;;;;;16.56;71.32;101600.22;5042098;28;20009;-83
2021/06/23 11:07:44;;;;;;;1.65;0.50;;;;;;;16.59;71.34;101609.81;5045158;28;20051;-83
2021/06/23 11:10:12;;;;;;;1.05;0.50;;;;;;;17.46;70.90;101726.94;5041303;28;20033;-83
2021/06/23 11:12:45;;;;;;;2.10;0.60;;;;;;;16.68;70.47;101627.50;5033062;28;20018;-82
2021/06/23 11:15:11;;;;;;;1.95;0.60;;;;;;;17.40;70.61;101734.09;5037155;28;20013;-83
2021/06/23 11:17:37;;;;;;;0.70;0.50;;;;;;;16.39;70.35;101564.59;5020065;28;20013;-82
2021/06/23 11:20:04;;;;;;;1.33;0.50;;;;;;;16.82;70.64;101637.28;5028802;28;20093;-83
2021/06/23 11:22:35;;;;;;;1.13;0.60;;;;;;;17.22;71.05;101720.41;5027291;28;20042;-83
2021/06/23 11:25:25;;;;;;;1.13;0.70;;;;;;;17.19;70.68;101737.19;5040148;28;20026;-83
2021/06/23 11:28:09;;;;;;;0.40;0.40;;;;;;;17.28;71.24;101728.50;5037103;28;20036;-84
2021/06/23 11:30:36;;;;;;;1.02;0.60;;;;;;;17.16;71.35;101727.59;5024219;28;20044;-84
2021/06/23 11:33:27;;;;;;;0.80;0.47;;;;;;;17.20;71.88;101733.41;5036520;28;20021;-84
2021/06/23 11:35:57;;;;;;;0.75;0.50;;;;;;;17.36;71.30;101728.25;5052740;28;20037;-84
2021/06/23 11:38:23;;;;;;;0.82;0.70;;;;;;;16.20;71.11;101555.50;5041972;28;20053;-83
2021/06/23 11:40:50;;;;;;;0.82;0.60;;;;;;;16.34;71.07;101585.31;5037474;28;20041;-84
2021/06/23 11:43:18;;;;;;;2.55;0.52;;;;;;;16.97;71.54;101698.63;5021058;28;20029;-84
2021/06/23 11:45:45;;;;;;;0.98;0.68;;;;;;;16.32;72.56;101585.50;5034611;28;20080;-83
2021/06/23 11:48:14;;;;;;;0.60;0.60;;;;;;;16.66;72.78;101651.34;5025073;28;20013;-84
2021/06/23 11:50:46;;;;;;;0.95;0.70;;;;;;;16.12;72.75;101568.50;5032391;28;20018;-83
2021/06/23 11:53:16;;;;;;;0.60;0.60;;;;;;;16.74;72.85;101693.72;5025291;28;20034;-83
2021/06/23 11:55:44;;;;;;;1.50;0.77;;;;;;;16.32;72.38;101628.13;5044830;28;20002;-83
2021/06/23 11:58:10;;;;;;;0.90;0.63;;;;;;;16.12;72.35;101593.75;5044248;28;20085;-84
2021/06/23 12:00:39;;;;;;;1.20;0.70;;;;;;;16.77;71.91;101672.41;5046562;28;20014;-83
2021/06/23 12:03:12;;;;;;;2.42;0.65;;;;;;;17.32;71.46;101740.66;5039088;28;20639;-83
2021/06/23 12:05:39;;;;;;;1.13;0.60;;;;;;;16.27;71.59;101574.47;5032089;28;20045;-83
2021/06/23 12:08:06;;;;;;;1.40;0.85;;;;;;;16.14;71.68;101564.53;5057735;28;20048;-79